Sunflower Gold — JD2460 — position and weather

sailwx.info

Track history (hours):
 
Tides and Currents Weather Stations Pressure Air Temp Water Temp Dewpoint Dewpoint Depression Visibility Wind Speed Wind Dir Waves Ship Positions

Sunflower Gold

Last reported at 2014-Dec-22 11:21 UTC. Time now 2014-Dec-22 21:19 UTC.
Position N 34°35' E 134°52'.

Length 166 m; draft 5.8 m.

Type: Passenger vessel. MMSI: 431000331.

Date/timePositionNaut miles runAvg speedWind from/ knotsBaromVisibWave heightAir tempDewpointWater temp
2014-Dec-22 11:21N 34°35' E 134°52'1620.3
2014-Dec-22 10:34N 34°36' E 135°11'7 7.0
2014-Dec-22 09:30N 34°42' E 135°17'0 0.0
2014-Dec-22 08:30N 34°42' E 135°17'0 0.0
2014-Dec-22 07:12N 34°42' E 135°17'0 0.0
2014-Dec-22 06:30N 34°42' E 135°17'0 0.0
2014-Dec-22 05:30N 34°42' E 135°17'0 0.0
2014-Dec-22 04:30N 34°42' E 135°17'0 0.0
2014-Dec-22 03:30N 34°42' E 135°17'0 0.0
2014-Dec-22 02:30N 34°42' E 135°17'0 0.0
2014-Dec-22 01:30N 34°42' E 135°17'0 0.0
2014-Dec-22 00:30N 34°42' E 135°17'0 0.0
2014-Dec-21 23:18N 34°42' E 135°17'0 0.0
2014-Dec-21 22:30N 34°42' E 135°17'0 0.0
2014-Dec-21 21:33N 34°42' E 135°17'1313.0
2014-Dec-21 20:34N 34°35' E 135°03'8 0.2
2014-Dec-20 12:06N 34°36' E 134°54'1119.3
2014-Dec-20 11:33N 34°36' E 135°07'1010.0
2014-Dec-20 10:32N 34°42' E 135°17'0 0.0
2014-Dec-20 09:32N 34°42' E 135°17'0 0.0
2014-Dec-20 08:32N 34°42' E 135°17'0 0.0
2014-Dec-20 07:32N 34°42' E 135°17'0 0.0
2014-Dec-20 06:32N 34°42' E 135°17'0 0.0
2014-Dec-20 05:20N 34°42' E 135°17'0 0.0
2014-Dec-20 04:32N 34°42' E 135°17'0 0.0
2014-Dec-20 03:32N 34°42' E 135°17'0 0.0
2014-Dec-20 02:32N 34°42' E 135°17'0 0.0
2014-Dec-20 01:26N 34°42' E 135°17'0 0.0
2014-Dec-20 00:26N 34°42' E 135°17'0 0.0
2014-Dec-19 23:26N 34°42' E 135°17'2 2.4
2014-Dec-19 22:33N 34°40' E 135°18'1514.7
2014-Dec-19 21:33N 34°37' E 135°01'7 0.2
2014-Dec-18 11:21N 34°35' E 134°53'1519.3
2014-Dec-18 10:33N 34°36' E 135°11'8 7.5
2014-Dec-18 09:33N 34°42' E 135°17'0 0.0
2014-Dec-18 08:33N 34°42' E 135°17'0 0.0
2014-Dec-18 07:33N 34°42' E 135°17'0 0.0
2014-Dec-18 06:33N 34°42' E 135°17'0 0.0
2014-Dec-18 05:33N 34°42' E 135°17'0 0.0
2014-Dec-18 04:33N 34°42' E 135°17'0 0.0
2014-Dec-18 03:15N 34°42' E 135°17'0 0.0
2014-Dec-18 02:33N 34°42' E 135°17'0 0.0
2014-Dec-18 01:27N 34°42' E 135°17'0 0.0
2014-Dec-18 00:21N 34°42' E 135°17'0 0.0
2014-Dec-17 23:27N 34°42' E 135°17'0 0.0
2014-Dec-17 22:33N 34°42' E 135°17'0 0.1
2014-Dec-17 21:33N 34°42' E 135°17'1312.9
2014-Dec-17 20:33N 34°35' E 135°04'10 0.3
2014-Dec-16 11:31N 34°35' E 134°51'1718.2
2014-Dec-16 10:34N 34°36' E 135°12'7 6.0
2014-Dec-16 09:27N 34°42' E 135°17'0 0.0
2014-Dec-16 08:33N 34°42' E 135°17'0 0.0
2014-Dec-16 07:33N 34°42' E 135°17'0 0.0
2014-Dec-16 06:33N 34°42' E 135°17'0 0.0
2014-Dec-16 05:33N 34°42' E 135°17'0 0.0
2014-Dec-16 04:21N 34°42' E 135°17'0 0.0
2014-Dec-16 03:27N 34°42' E 135°17'0 0.0
2014-Dec-16 02:23N 34°42' E 135°17'0 0.0
2014-Dec-16 01:33N 34°42' E 135°17'0 0.0
2014-Dec-15 23:23N 34°42' E 135°17'0 0.0
2014-Dec-15 22:27N 34°42' E 135°17'0 0.0
2014-Dec-15 21:33N 34°42' E 135°17'1313.1
2014-Dec-15 20:33N 34°36' E 135°03'8 0.3
2014-Dec-14 11:26N 34°35' E 134°53'1617.7
2014-Dec-14 10:33N 34°36' E 135°12'7 7.1
2014-Dec-14 09:33N 34°42' E 135°17'0 0.0
2014-Dec-14 08:27N 34°42' E 135°17'0 0.0
2014-Dec-14 07:33N 34°42' E 135°17'0 0.0
2014-Dec-14 06:33N 34°42' E 135°17'0 0.0
2014-Dec-14 05:33N 34°42' E 135°17'0 0.0
2014-Dec-14 04:33N 34°42' E 135°17'0 0.0
2014-Dec-14 03:33N 34°42' E 135°17'0 0.0
2014-Dec-14 02:33N 34°42' E 135°17'0 0.0
2014-Dec-14 01:33N 34°42' E 135°17'0 0.0
2014-Dec-14 00:33N 34°42' E 135°17'0 0.0
2014-Dec-13 23:33N 34°42' E 135°17'3 3.3
2014-Dec-13 22:33N 34°39' E 135°18'1716.7
2014-Dec-13 21:32N 34°37' E 134°58'1918.1
2014-Dec-13 20:30N 34°28' E 134°37'12 0.4
2014-Dec-12 12:21N 34°35' E 134°50'1519.1
2014-Dec-12 11:33N 34°36' E 135°08'  
Track history (hours):
 
Tides and Currents Weather Stations Pressure Air Temp Water Temp Dewpoint Dewpoint Depression Visibility Wind Speed Wind Dir Waves Ship Positions

Sunflower Gold

Last reported at 2014-Dec-22 11:21 UTC. Time now 2014-Dec-22 21:19 UTC.
Position N 34°35' E 134°52'.

Length 166 m; draft 5.8 m.

Type: Passenger vessel. MMSI: 431000331.

Date/timePositionNaut miles runAvg speedWind from/ knotsBaromVisibWave heightAir tempDewpointWater temp
2014-Dec-22 11:21N 34°35' E 134°52'1620.3
2014-Dec-22 10:34N 34°36' E 135°11'7 7.0
2014-Dec-22 09:30N 34°42' E 135°17'0 0.0
2014-Dec-22 08:30N 34°42' E 135°17'0 0.0
2014-Dec-22 07:12N 34°42' E 135°17'0 0.0
2014-Dec-22 06:30N 34°42' E 135°17'0 0.0
2014-Dec-22 05:30N 34°42' E 135°17'0 0.0
2014-Dec-22 04:30N 34°42' E 135°17'0 0.0
2014-Dec-22 03:30N 34°42' E 135°17'0 0.0
2014-Dec-22 02:30N 34°42' E 135°17'0 0.0
2014-Dec-22 01:30N 34°42' E 135°17'0 0.0
2014-Dec-22 00:30N 34°42' E 135°17'0 0.0
2014-Dec-21 23:18N 34°42' E 135°17'0 0.0
2014-Dec-21 22:30N 34°42' E 135°17'0 0.0
2014-Dec-21 21:33N 34°42' E 135°17'1313.0
2014-Dec-21 20:34N 34°35' E 135°03'8 0.2
2014-Dec-20 12:06N 34°36' E 134°54'1119.3
2014-Dec-20 11:33N 34°36' E 135°07'1010.0
2014-Dec-20 10:32N 34°42' E 135°17'0 0.0
2014-Dec-20 09:32N 34°42' E 135°17'0 0.0
2014-Dec-20 08:32N 34°42' E 135°17'0 0.0
2014-Dec-20 07:32N 34°42' E 135°17'0 0.0
2014-Dec-20 06:32N 34°42' E 135°17'0 0.0
2014-Dec-20 05:20N 34°42' E 135°17'0 0.0
2014-Dec-20 04:32N 34°42' E 135°17'0 0.0
2014-Dec-20 03:32N 34°42' E 135°17'0 0.0
2014-Dec-20 02:32N 34°42' E 135°17'0 0.0
2014-Dec-20 01:26N 34°42' E 135°17'0 0.0
2014-Dec-20 00:26N 34°42' E 135°17'0 0.0
2014-Dec-19 23:26N 34°42' E 135°17'2 2.4
2014-Dec-19 22:33N 34°40' E 135°18'1514.7
2014-Dec-19 21:33N 34°37' E 135°01'7 0.2
2014-Dec-18 11:21N 34°35' E 134°53'1519.3
2014-Dec-18 10:33N 34°36' E 135°11'8 7.5
2014-Dec-18 09:33N 34°42' E 135°17'0 0.0
2014-Dec-18 08:33N 34°42' E 135°17'0 0.0
2014-Dec-18 07:33N 34°42' E 135°17'0 0.0
2014-Dec-18 06:33N 34°42' E 135°17'0 0.0
2014-Dec-18 05:33N 34°42' E 135°17'0 0.0
2014-Dec-18 04:33N 34°42' E 135°17'0 0.0
2014-Dec-18 03:15N 34°42' E 135°17'0 0.0
2014-Dec-18 02:33N 34°42' E 135°17'0 0.0
2014-Dec-18 01:27N 34°42' E 135°17'0 0.0
2014-Dec-18 00:21N 34°42' E 135°17'0 0.0
2014-Dec-17 23:27N 34°42' E 135°17'0 0.0
2014-Dec-17 22:33N 34°42' E 135°17'0 0.1
2014-Dec-17 21:33N 34°42' E 135°17'1312.9
2014-Dec-17 20:33N 34°35' E 135°04'10 0.3
2014-Dec-16 11:31N 34°35' E 134°51'1718.2
2014-Dec-16 10:34N 34°36' E 135°12'7 6.0
2014-Dec-16 09:27N 34°42' E 135°17'0 0.0
2014-Dec-16 08:33N 34°42' E 135°17'0 0.0
2014-Dec-16 07:33N 34°42' E 135°17'0 0.0
2014-Dec-16 06:33N 34°42' E 135°17'0 0.0
2014-Dec-16 05:33N 34°42' E 135°17'0 0.0
2014-Dec-16 04:21N 34°42' E 135°17'0 0.0
2014-Dec-16 03:27N 34°42' E 135°17'0 0.0
2014-Dec-16 02:23N 34°42' E 135°17'0 0.0
2014-Dec-16 01:33N 34°42' E 135°17'0 0.0
2014-Dec-15 23:23N 34°42' E 135°17'0 0.0
2014-Dec-15 22:27N 34°42' E 135°17'0 0.0
2014-Dec-15 21:33N 34°42' E 135°17'1313.1
2014-Dec-15 20:33N 34°36' E 135°03'8 0.3
2014-Dec-14 11:26N 34°35' E 134°53'1617.7
2014-Dec-14 10:33N 34°36' E 135°12'7 7.1
2014-Dec-14 09:33N 34°42' E 135°17'0 0.0
2014-Dec-14 08:27N 34°42' E 135°17'0 0.0
2014-Dec-14 07:33N 34°42' E 135°17'0 0.0
2014-Dec-14 06:33N 34°42' E 135°17'0 0.0
2014-Dec-14 05:33N 34°42' E 135°17'0 0.0
2014-Dec-14 04:33N 34°42' E 135°17'0 0.0
2014-Dec-14 03:33N 34°42' E 135°17'0 0.0
2014-Dec-14 02:33N 34°42' E 135°17'0 0.0
2014-Dec-14 01:33N 34°42' E 135°17'0 0.0
2014-Dec-14 00:33N 34°42' E 135°17'0 0.0
2014-Dec-13 23:33N 34°42' E 135°17'3 3.3
2014-Dec-13 22:33N 34°39' E 135°18'1716.7
2014-Dec-13 21:32N 34°37' E 134°58'1918.1
2014-Dec-13 20:30N 34°28' E 134°37'12 0.4
2014-Dec-12 12:21N 34°35' E 134°50'1519.1
2014-Dec-12 11:33N 34°36' E 135°08'  

Dump ship's entire track history